Time;durP1;ratioP1;P1;durP2;ratioP2;P2;SDS_P1;SDS_P2;PMS_P1;PMS_P2;Temp;Humidity;BMP_temperature;BMP_pressure;BME280_temperature;BME280_humidity;BME280_pressure;Samples;Min_cycle;Max_cycle;Signal;HPM_P1;HPM_P2
2021/10/18 00:01:11;;;;;;;1.60;1.50;;;15.10;75.70;;;;;;5132512;28;20085;-58
2021/10/18 00:03:37;;;;;;;1.45;1.23;;;15.20;75.70;;;;;;5114056;28;20054;-66
2021/10/18 00:06:03;;;;;;;1.40;1.20;;;15.20;75.70;;;;;;5133224;28;20049;-63
2021/10/18 00:08:28;;;;;;;1.85;1.40;;;15.20;75.70;;;;;;5133097;28;20096;-64
2021/10/18 00:10:54;;;;;;;1.75;1.42;;;15.20;75.70;;;;;;5132672;28;20043;-64
2021/10/18 00:13:20;;;;;;;1.60;1.45;;;15.10;75.60;;;;;;5133034;28;20077;-62
2021/10/18 00:15:46;;;;;;;1.75;1.55;;;15.20;75.70;;;;;;5132221;28;20058;-57
2021/10/18 00:18:12;;;;;;;1.98;1.55;;;15.20;75.70;;;;;;5133319;28;20472;-63
2021/10/18 00:20:38;;;;;;;1.70;1.17;;;15.10;75.70;;;;;;5132753;28;20126;-64
2021/10/18 00:23:03;;;;;;;1.50;1.40;;;15.20;75.70;;;;;;5132842;28;20118;-64
2021/10/18 00:25:29;;;;;;;1.45;1.35;;;15.20;75.70;;;;;;5133207;28;20386;-65
2021/10/18 00:27:55;;;;;;;1.73;1.63;;;15.20;75.70;;;;;;5133201;28;20118;-66
2021/10/18 00:30:20;;;;;;;1.55;1.42;;;15.20;75.70;;;;;;5132653;28;20036;-66
2021/10/18 00:32:46;;;;;;;1.40;1.30;;;15.10;75.70;;;;;;5134563;27;20036;-64
2021/10/18 00:35:12;;;;;;;1.30;1.20;;;15.20;75.80;;;;;;5136715;27;20452;-64
2021/10/18 00:37:38;;;;;;;1.33;1.20;;;15.20;75.80;;;;;;5136852;27;20035;-63
2021/10/18 00:40:05;;;;;;;1.35;1.25;;;15.20;75.80;;;;;;5152295;27;20079;-66
2021/10/18 00:42:31;;;;;;;2.10;1.30;;;15.20;75.80;;;;;;5136648;27;20061;-66
2021/10/18 00:44:57;;;;;;;1.40;1.17;;;15.10;75.70;;;;;;5136862;27;20039;-65
2021/10/18 00:47:22;;;;;;;1.55;1.45;;;15.10;76.30;;;;;;5136198;27;20189;-65
2021/10/18 00:49:49;;;;;;;1.50;1.40;;;15.10;75.70;;;;;;5136962;27;20122;-66
2021/10/18 00:52:17;;;;;;;1.30;1.13;;;15.20;75.80;;;;;;5136874;27;20440;-66
2021/10/18 00:54:43;;;;;;;1.40;1.30;;;15.20;75.80;;;;;;5136632;27;20043;-66
2021/10/18 00:57:09;;;;;;;1.27;1.20;;;15.20;75.80;;;;;;5136857;27;20086;-65
2021/10/18 00:59:35;;;;;;;1.65;1.42;;;15.10;75.70;;;;;;5118296;27;20493;-64
2021/10/18 01:02:02;;;;;;;1.30;1.20;;;15.10;75.70;;;;;;5136409;27;20035;-63
2021/10/18 01:04:28;;;;;;;1.58;1.40;;;15.20;75.80;;;;;;5135649;27;20368;-61
2021/10/18 01:06:56;;;;;;;1.90;1.20;;;15.10;75.70;;;;;;5117747;27;20112;-63
2021/10/18 01:09:21;;;;;;;1.30;1.20;;;15.10;75.70;;;;;;5136266;27;20471;-63
2021/10/18 01:11:47;;;;;;;1.33;1.23;;;15.10;75.70;;;;;;5136322;27;20054;-65
2021/10/18 01:14:13;;;;;;;1.67;1.30;;;15.10;75.70;;;;;;5136059;27;20046;-63
2021/10/18 01:16:39;;;;;;;1.80;1.23;;;15.10;75.70;;;;;;5135613;27;20062;-65
2021/10/18 01:19:22;;;;;;;2.28;1.48;;;15.20;75.80;;;;;;5135481;27;20061;-64
2021/10/18 01:21:48;;;;;;;1.40;1.30;;;15.20;75.70;;;;;;5136022;27;20498;-64
2021/10/18 01:24:14;;;;;;;1.20;1.10;;;15.20;75.80;;;;;;5136047;27;20039;-64
2021/10/18 01:26:40;;;;;;;2.72;1.60;;;15.10;75.70;;;;;;5135681;27;20050;-66
2021/10/18 01:29:05;;;;;;;1.40;1.30;;;15.10;75.70;;;;;;5136100;27;20061;-65
2021/10/18 01:31:31;;;;;;;1.50;1.40;;;15.20;75.80;;;;;;5135277;27;20050;-62
2021/10/18 01:33:57;;;;;;;1.50;1.23;;;15.10;75.70;;;;;;5135755;27;20122;-63
2021/10/18 01:36:23;;;;;;;1.25;1.17;;;15.10;75.70;;;;;;5135055;27;20153;-64
2021/10/18 01:38:49;;;;;;;1.80;1.30;;;15.10;75.70;;;;;;5135820;27;20039;-64
2021/10/18 01:41:15;;;;;;;2.05;1.20;;;15.10;75.70;;;;;;5135638;27;20046;-65
2021/10/18 01:43:40;;;;;;;1.45;1.35;;;15.10;75.70;;;;;;5135584;27;20031;-64
2021/10/18 01:46:06;;;;;;;1.70;1.42;;;15.20;75.80;;;;;;5134765;27;20051;-64
2021/10/18 01:48:32;;;;;;;1.33;1.23;;;15.10;75.70;;;;;;5135259;27;20042;-64
2021/10/18 01:50:58;;;;;;;1.85;1.50;;;15.10;75.70;;;;;;5134947;27;20046;-64
2021/10/18 01:53:24;;;;;;;1.50;1.40;;;15.10;75.70;;;;;;5135509;27;20403;-63
2021/10/18 01:55:49;;;;;;;1.55;1.45;;;15.10;75.70;;;;;;5135564;27;20039;-62
2021/10/18 01:58:15;;;;;;;2.38;1.25;;;15.20;75.80;;;;;;5134928;27;20091;-62
2021/10/18 02:00:42;;;;;;;2.78;1.52;;;15.20;75.80;;;;;;5135280;27;20046;-64
2021/10/18 02:03:09;;;;;;;1.60;1.30;;;15.10;75.70;;;;;;5135101;27;20047;-64
2021/10/18 02:05:35;;;;;;;1.45;1.30;;;15.10;75.70;;;;;;5116205;27;20093;-65
2021/10/18 02:08:00;;;;;;;1.92;1.40;;;15.10;75.70;;;;;;5134581;27;20136;-65
2021/10/18 02:10:26;;;;;;;1.48;1.30;;;15.10;75.70;;;;;;5135317;27;20499;-64
2021/10/18 02:12:52;;;;;;;2.08;1.55;;;15.10;75.70;;;;;;5135104;27;20036;-63
2021/10/18 02:15:17;;;;;;;2.10;1.65;;;15.20;75.80;;;;;;5134731;27;20085;-65
2021/10/18 02:17:43;;;;;;;1.85;1.35;;;15.10;75.70;;;;;;5134879;27;20082;-66
2021/10/18 02:20:12;;;;;;;1.80;1.27;;;15.10;75.70;;;;;;5115887;27;20444;-63
2021/10/18 02:22:38;;;;;;;1.60;1.50;;;15.10;75.70;;;;;;5134610;27;20043;-64
2021/10/18 02:25:05;;;;;;;1.70;1.52;;;15.10;75.70;;;;;;5116623;27;20119;-63
2021/10/18 02:27:31;;;;;;;1.85;1.60;;;15.10;75.70;;;;;;5134663;27;20130;-65
2021/10/18 02:29:57;;;;;;;1.60;1.30;;;15.20;75.80;;;;;;5134627;27;20066;-60
2021/10/18 02:32:23;;;;;;;2.92;1.40;;;15.20;75.80;;;;;;5134610;27;20054;-64
2021/10/18 02:34:49;;;;;;;1.83;1.63;;;15.10;75.70;;;;;;5134723;27;20045;-60
2021/10/18 02:37:15;;;;;;;2.42;1.70;;;15.20;75.80;;;;;;5134542;27;20500;-63
2021/10/18 02:39:40;;;;;;;2.17;1.65;;;15.20;75.80;;;;;;5134163;27;20110;-64
2021/10/18 02:42:06;;;;;;;1.88;1.50;;;15.20;75.70;;;;;;5116002;27;20050;-65
2021/10/18 02:44:32;;;;;;;1.55;1.45;;;15.10;75.70;;;;;;5134466;27;20057;-66
2021/10/18 02:46:58;;;;;;;1.48;1.38;;;15.10;75.70;;;;;;5134294;27;20100;-63
2021/10/18 02:49:23;;;;;;;1.92;1.73;;;15.10;75.70;;;;;;5134608;27;20042;-64
2021/10/18 02:51:49;;;;;;;1.50;1.40;;;15.20;75.80;;;;;;5134032;27;20429;-65
2021/10/18 02:54:15;;;;;;;1.48;1.38;;;15.10;75.70;;;;;;5133521;27;20110;-64
2021/10/18 02:56:41;;;;;;;1.70;1.50;;;15.10;75.70;;;;;;5134185;27;20465;-66
2021/10/18 02:59:07;;;;;;;2.05;1.40;;;15.10;75.70;;;;;;5134245;27;20115;-65
2021/10/18 03:01:32;;;;;;;1.50;1.40;;;15.10;75.70;;;;;;5133942;27;20035;-63
2021/10/18 03:03:58;;;;;;;1.60;1.40;;;15.10;75.70;;;;;;5134285;27;20047;-64
2021/10/18 03:06:24;;;;;;;1.65;1.50;;;15.10;75.70;;;;;;5133885;27;20116;-66
2021/10/18 03:08:50;;;;;;;1.83;1.50;;;15.10;75.80;;;;;;5133733;27;20054;-66
2021/10/18 03:11:16;;;;;;;1.90;1.35;;;15.10;75.70;;;;;;5133449;27;20051;-66
2021/10/18 03:13:41;;;;;;;1.77;1.50;;;15.10;75.70;;;;;;5113560;28;20418;-66
2021/10/18 03:16:07;;;;;;;1.60;1.50;;;15.10;75.70;;;;;;5113034;28;20122;-66
2021/10/18 03:18:33;;;;;;;1.50;1.40;;;15.10;75.70;;;;;;5113140;28;20050;-66
2021/10/18 03:20:59;;;;;;;1.67;1.40;;;15.20;75.80;;;;;;5112632;28;20460;-65
2021/10/18 03:23:24;;;;;;;1.80;1.67;;;15.10;75.70;;;;;;5126886;27;20491;-66
2021/10/18 03:25:50;;;;;;;2.47;1.40;;;15.10;75.70;;;;;;5133400;27;20039;-66
2021/10/18 03:28:16;;;;;;;1.60;1.50;;;15.10;75.70;;;;;;5133792;27;20077;-66
2021/10/18 03:30:41;;;;;;;2.00;1.52;;;15.10;75.70;;;;;;5133516;27;20046;-64
2021/10/18 03:33:07;;;;;;;1.90;1.67;;;15.10;75.70;;;;;;5133471;27;20043;-66
2021/10/18 03:35:33;;;;;;;1.45;1.35;;;15.10;75.70;;;;;;5114948;28;20039;-63
2021/10/18 03:37:58;;;;;;;1.77;1.50;;;15.10;75.70;;;;;;5133478;27;20041;-65
2021/10/18 03:40:24;;;;;;;2.42;1.90;;;15.20;75.70;;;;;;5133283;27;20039;-65
2021/10/18 03:42:50;;;;;;;1.52;1.42;;;15.10;75.60;;;;;;5133256;27;20039;-65
2021/10/18 03:45:17;;;;;;;2.10;1.63;;;15.10;75.70;;;;;;5133137;27;20047;-64
2021/10/18 03:47:43;;;;;;;1.85;1.60;;;15.20;75.70;;;;;;5133563;27;20348;-65
2021/10/18 03:50:09;;;;;;;2.53;1.40;;;15.10;75.70;;;;;;5133426;27;20051;-64
2021/10/18 03:52:35;;;;;;;1.83;1.60;;;15.10;75.60;;;;;;5133208;27;20479;-65
2021/10/18 03:55:01;;;;;;;2.22;1.70;;;15.10;75.70;;;;;;5133117;27;20042;-65
2021/10/18 03:57:27;;;;;;;2.25;1.70;;;15.10;75.70;;;;;;5133196;27;20543;-65
2021/10/18 03:59:52;;;;;;;2.28;1.70;;;15.10;75.70;;;;;;5133623;27;20193;-66
2021/10/18 04:02:18;;;;;;;1.60;1.50;;;15.10;75.60;;;;;;5133642;28;20049;-65
2021/10/18 04:04:44;;;;;;;1.90;1.70;;;15.10;75.70;;;;;;5133433;28;20041;-62
2021/10/18 04:07:10;;;;;;;1.63;1.50;;;15.10;75.70;;;;;;5134659;27;20380;-64
2021/10/18 04:09:38;;;;;;;2.40;1.92;;;15.00;75.60;;;;;;5137540;27;20179;-64
2021/10/18 04:12:04;;;;;;;1.98;1.60;;;15.10;75.70;;;;;;5137588;27;20073;-64
2021/10/18 04:14:30;;;;;;;1.77;1.67;;;15.10;75.70;;;;;;5118853;27;20051;-63
2021/10/18 04:16:56;;;;;;;1.67;1.52;;;15.10;75.70;;;;;;5133406;27;20459;-65
2021/10/18 04:19:22;;;;;;;2.67;1.60;;;15.10;75.70;;;;;;5132740;27;20121;-66
2021/10/18 04:21:48;;;;;;;2.72;1.73;;;15.10;75.70;;;;;;5116980;28;20047;-66
2021/10/18 04:24:14;;;;;;;1.70;1.50;;;15.10;75.70;;;;;;5116919;28;20127;-65
2021/10/18 04:26:40;;;;;;;2.35;1.73;;;15.10;75.70;;;;;;5124028;27;20140;-66
2021/10/18 04:29:07;;;;;;;1.83;1.73;;;15.10;75.70;;;;;;5136590;27;20047;-66
2021/10/18 04:31:33;;;;;;;1.70;1.60;;;15.10;75.70;;;;;;5137089;27;20055;-66
2021/10/18 04:34:00;;;;;;;2.00;1.80;;;15.10;75.70;;;;;;5136841;27;20043;-66
2021/10/18 04:36:26;;;;;;;2.30;1.75;;;15.10;75.70;;;;;;5136820;27;20066;-65
2021/10/18 04:38:52;;;;;;;2.25;1.73;;;15.20;75.70;;;;;;5135609;27;20042;-66
2021/10/18 04:41:18;;;;;;;2.28;1.92;;;15.10;75.60;;;;;;5136652;27;20494;-66
2021/10/18 04:43:44;;;;;;;2.08;1.80;;;15.10;75.60;;;;;;5137053;27;20104;-66
2021/10/18 04:46:09;;;;;;;1.80;1.70;;;15.10;75.70;;;;;;5136232;27;20047;-66
2021/10/18 04:48:35;;;;;;;1.70;1.58;;;15.10;75.70;;;;;;5136120;27;20066;-66
2021/10/18 04:51:01;;;;;;;2.28;1.70;;;15.10;75.70;;;;;;5136525;27;20047;-66
2021/10/18 04:53:27;;;;;;;2.58;2.00;;;15.10;75.60;;;;;;5136597;27;20114;-66
2021/10/18 04:55:52;;;;;;;2.92;2.10;;;15.20;75.70;;;;;;5136734;27;20042;-66
2021/10/18 04:58:18;;;;;;;1.63;1.52;;;15.10;75.70;;;;;;5136201;27;20047;-66
2021/10/18 05:00:47;;;;;;;1.88;1.58;;;15.10;75.60;;;;;;5135861;27;20380;-66
2021/10/18 05:03:12;;;;;;;2.70;2.17;;;15.10;75.70;;;;;;5136568;27;20119;-66
2021/10/18 05:05:39;;;;;;;1.95;1.75;;;15.10;75.60;;;;;;5136402;27;20463;-66
2021/10/18 05:08:12;;;;;;;2.45;1.98;;;15.10;75.60;;;;;;5136342;27;20054;-66
2021/10/18 05:10:40;;;;;;;2.17;1.98;;;15.10;75.60;;;;;;5135842;27;20138;-63
2021/10/18 05:13:07;;;;;;;2.30;1.83;;;15.10;75.70;;;;;;5136351;27;20035;-66
2021/10/18 05:15:33;;;;;;;2.03;1.77;;;15.10;75.60;;;;;;5136234;27;20070;-66
2021/10/18 05:18:00;;;;;;;1.90;1.70;;;15.10;75.70;;;;;;5135087;27;20093;-66
2021/10/18 05:20:27;;;;;;;3.28;1.90;;;15.10;75.60;;;;;;5136128;27;20031;-66
2021/10/18 05:22:53;;;;;;;3.15;1.80;;;15.10;75.70;;;;;;5135770;27;20145;-66
2021/10/18 05:25:19;;;;;;;2.65;1.90;;;15.10;75.60;;;;;;5136033;27;20526;-66
2021/10/18 05:27:45;;;;;;;2.00;1.77;;;15.10;75.70;;;;;;5117045;27;20051;-66
2021/10/18 05:30:12;;;;;;;2.47;1.63;;;15.10;75.70;;;;;;5116653;27;20122;-66
2021/10/18 05:32:38;;;;;;;3.30;1.98;;;15.10;75.70;;;;;;5135623;27;20458;-66
2021/10/18 05:35:05;;;;;;;2.38;2.03;;;15.10;75.70;;;;;;5135617;27;20479;-65
2021/10/18 05:37:31;;;;;;;1.77;1.48;;;15.10;75.70;;;;;;5136019;27;20088;-66
2021/10/18 05:39:57;;;;;;;2.70;1.95;;;15.10;75.70;;;;;;5117308;27;20150;-66
2021/10/18 05:42:23;;;;;;;1.90;1.63;;;15.10;75.70;;;;;;5135510;27;20061;-66
2021/10/18 05:44:48;;;;;;;2.15;1.80;;;15.10;75.70;;;;;;5135612;27;20076;-66
2021/10/18 05:47:14;;;;;;;1.92;1.70;;;15.10;75.70;;;;;;5135721;27;20046;-66
2021/10/18 05:49:40;;;;;;;2.10;1.70;;;15.10;75.70;;;;;;5134735;27;20398;-65
2021/10/18 05:52:06;;;;;;;2.58;2.15;;;15.10;75.70;;;;;;5134560;27;20126;-66
2021/10/18 05:54:32;;;;;;;2.83;2.20;;;15.10;75.70;;;;;;5115793;27;20492;-66
2021/10/18 05:56:57;;;;;;;2.42;2.03;;;15.10;75.70;;;;;;5135463;27;20047;-65
2021/10/18 05:59:23;;;;;;;2.38;2.17;;;15.10;75.70;;;;;;5135339;27;20490;-66
2021/10/18 06:01:49;;;;;;;2.97;1.98;;;15.10;75.60;;;;;;5135346;27;20038;-63
2021/10/18 06:04:15;;;;;;;2.20;2.00;;;15.10;75.60;;;;;;5135063;27;20401;-66
2021/10/18 06:06:41;;;;;;;1.98;1.75;;;15.10;75.60;;;;;;5135327;27;20412;-65
2021/10/18 06:09:07;;;;;;;2.20;2.00;;;15.10;75.60;;;;;;5136083;27;20117;-66
2021/10/18 06:11:33;;;;;;;2.90;2.33;;;15.10;75.70;;;;;;5135298;27;20566;-62
2021/10/18 06:13:59;;;;;;;2.15;1.77;;;15.10;75.60;;;;;;5134628;27;20074;-63
2021/10/18 06:16:25;;;;;;;2.38;2.03;;;15.10;75.60;;;;;;5134527;27;20104;-65
2021/10/18 06:18:51;;;;;;;2.33;2.00;;;15.10;75.60;;;;;;5135211;27;20043;-61
2021/10/18 06:21:17;;;;;;;3.72;2.00;;;15.10;75.60;;;;;;5134480;27;20039;-56
2021/10/18 06:23:43;;;;;;;2.92;2.22;;;15.10;75.60;;;;;;5134615;27;20080;-60
2021/10/18 06:26:12;;;;;;;2.03;1.85;;;15.10;75.60;;;;;;5134715;27;20471;-58
2021/10/18 06:28:41;;;;;;;2.70;2.28;;;15.10;75.60;;;;;;5134795;27;20363;-59
2021/10/18 06:31:07;;;;;;;2.53;2.33;;;15.10;75.60;;;;;;5133904;27;20054;-59
2021/10/18 06:33:33;;;;;;;2.22;2.00;;;15.10;75.60;;;;;;5134644;27;20474;-58
2021/10/18 06:35:59;;;;;;;2.30;2.10;;;15.10;75.60;;;;;;5133461;27;20451;-58
2021/10/18 06:38:25;;;;;;;3.53;2.25;;;15.10;75.70;;;;;;5134868;27;20039;-63
2021/10/18 06:40:52;;;;;;;3.88;2.70;;;15.10;75.60;;;;;;5134458;27;20383;-66
2021/10/18 06:43:19;;;;;;;3.47;2.22;;;15.10;75.60;;;;;;5134473;27;20035;-66
2021/10/18 06:45:46;;;;;;;2.40;2.17;;;15.10;75.70;;;;;;5133735;27;20579;-66
2021/10/18 06:48:14;;;;;;;2.15;1.90;;;15.10;75.70;;;;;;5115653;27;20035;-62
2021/10/18 06:50:41;;;;;;;2.40;2.10;;;15.10;75.70;;;;;;5150083;27;20055;-65
2021/10/18 06:53:11;;;;;;;2.30;2.10;;;15.10;75.70;;;;;;5133984;27;20113;-65
2021/10/18 06:55:37;;;;;;;2.45;2.00;;;15.10;75.70;;;;;;5133339;27;20495;-65
2021/10/18 06:58:03;;;;;;;2.45;2.13;;;15.10;75.70;;;;;;5134158;27;20070;-62
2021/10/18 07:00:29;;;;;;;2.45;2.10;;;15.10;75.70;;;;;;5134069;27;20077;-65
2021/10/18 07:02:54;;;;;;;2.13;1.92;;;15.10;75.70;;;;;;5133991;27;20039;-66
2021/10/18 07:05:21;;;;;;;2.95;2.08;;;15.00;75.60;;;;;;5115250;27;20112;-66
2021/10/18 07:07:47;;;;;;;2.60;2.20;;;15.10;75.70;;;;;;5133022;27;20043;-65
2021/10/18 07:10:13;;;;;;;3.50;2.20;;;15.10;75.70;;;;;;5115256;27;20050;-66
2021/10/18 07:12:39;;;;;;;2.35;2.15;;;15.10;75.70;;;;;;5149655;27;20086;-66
2021/10/18 07:15:05;;;;;;;2.55;2.30;;;15.00;75.70;;;;;;5133880;27;20074;-62
2021/10/18 07:17:31;;;;;;;2.40;2.00;;;15.00;75.70;;;;;;5114285;27;20043;-66
2021/10/18 07:19:58;;;;;;;3.00;2.35;;;15.10;75.70;;;;;;5134059;27;20146;-64
2021/10/18 07:22:28;;;;;;;2.55;2.10;;;15.00;75.70;;;;;;5133845;27;20050;-63
2021/10/18 07:24:54;;;;;;;2.70;2.17;;;15.00;75.70;;;;;;5133494;27;20070;-64
2021/10/18 07:27:21;;;;;;;2.55;2.35;;;15.10;75.70;;;;;;5133405;27;20082;-64
2021/10/18 07:29:47;;;;;;;2.50;2.15;;;15.00;75.70;;;;;;5120791;27;20046;-66
2021/10/18 07:32:13;;;;;;;3.25;2.13;;;15.00;75.70;;;;;;5133366;27;20399;-60
2021/10/18 07:34:39;;;;;;;2.85;2.25;;;15.00;75.70;;;;;;5133789;27;20078;-65
2021/10/18 07:37:07;;;;;;;2.95;2.25;;;15.00;75.70;;;;;;5114630;27;20066;-58
2021/10/18 07:39:33;;;;;;;2.63;2.03;;;15.00;75.70;;;;;;5132696;27;20046;-61
2021/10/18 07:41:59;;;;;;;2.70;2.40;;;15.00;75.70;;;;;;5133331;27;20047;-59
2021/10/18 07:44:25;;;;;;;3.13;2.40;;;15.00;75.70;;;;;;5133448;27;20035;-59
2021/10/18 07:46:59;;;;;;;3.00;2.33;;;15.00;75.80;;;;;;5133367;27;20058;-58
2021/10/18 07:49:27;;;;;;;2.20;1.92;;;15.10;75.80;;;;;;5132985;27;20050;-58
2021/10/18 07:51:54;;;;;;;2.80;2.50;;;15.00;75.80;;;;;;5133239;27;20071;-61
2021/10/18 07:54:21;;;;;;;2.60;2.30;;;15.00;75.70;;;;;;5132975;27;20047;-60
2021/10/18 07:56:47;;;;;;;2.35;2.05;;;15.00;75.70;;;;;;5133043;27;20047;-59
2021/10/18 07:59:12;;;;;;;3.22;2.50;;;15.00;75.70;;;;;;5133013;27;20168;-60
2021/10/18 08:01:38;;;;;;;2.28;1.90;;;15.00;75.70;;;;;;5133092;27;20078;-63
2021/10/18 08:04:04;;;;;;;2.20;2.00;;;15.00;75.70;;;;;;5133386;27;20070;-59
2021/10/18 08:06:30;;;;;;;3.35;2.72;;;15.00;75.80;;;;;;5133332;28;20047;-59
2021/10/18 08:08:56;;;;;;;2.67;2.45;;;15.00;75.80;;;;;;5133504;28;20086;-60
2021/10/18 08:11:22;;;;;;;2.47;2.28;;;15.00;75.80;;;;;;5133020;28;20043;-62
2021/10/18 08:13:48;;;;;;;2.97;2.38;;;15.00;75.80;;;;;;5133922;28;20031;-59
2021/10/18 08:16:14;;;;;;;3.08;2.72;;;15.00;75.80;;;;;;5133330;28;20058;-60
2021/10/18 08:18:40;;;;;;;2.70;2.35;;;15.00;75.80;;;;;;5133102;28;20122;-59
2021/10/18 08:21:07;;;;;;;3.17;2.42;;;15.00;75.80;;;;;;5132812;28;20042;-61
2021/10/18 08:23:34;;;;;;;2.45;2.25;;;15.00;75.80;;;;;;5133110;28;20040;-62
2021/10/18 08:26:01;;;;;;;2.55;2.35;;;15.10;75.80;;;;;;5132866;28;20455;-63
2021/10/18 08:28:27;;;;;;;2.80;2.50;;;15.00;75.80;;;;;;5133060;28;20143;-60
2021/10/18 08:30:54;;;;;;;2.65;2.38;;;15.00;75.80;;;;;;5132943;28;20038;-59
2021/10/18 08:33:20;;;;;;;3.20;2.50;;;15.10;75.90;;;;;;5132419;28;20375;-59
2021/10/18 08:35:46;;;;;;;2.53;2.30;;;15.00;75.80;;;;;;5132801;28;20099;-58
2021/10/18 08:38:18;;;;;;;2.50;2.28;;;15.00;75.80;;;;;;5132889;28;20126;-59
2021/10/18 08:41:10;;;;;;;3.00;2.55;;;15.00;75.80;;;;;;5114633;28;20475;-58
2021/10/18 08:44:14;;;;;;;3.35;2.58;;;15.00;75.80;;;;;;5131419;28;20039;-59
2021/10/18 08:46:19;;;;;;;3.65;2.95;;;15.00;75.80;;;;;;5132516;28;20118;-57
2021/10/18 08:48:52;;;;;;;2.75;2.28;;;15.00;75.80;;;;;;5132899;28;20039;-61
2021/10/18 08:51:18;;;;;;;2.90;2.13;;;15.00;75.80;;;;;;5114004;28;20043;-61
2021/10/18 08:53:45;;;;;;;3.38;2.53;;;15.00;75.80;;;;;;5135007;27;20100;-58
2021/10/18 08:56:11;;;;;;;2.90;2.58;;;15.00;75.80;;;;;;5136644;27;20051;-59
2021/10/18 08:58:37;;;;;;;2.80;2.50;;;15.00;75.80;;;;;;5135903;27;20039;-58
2021/10/18 09:01:02;;;;;;;3.22;2.50;;;15.00;75.80;;;;;;5136580;27;20055;-60
2021/10/18 09:03:31;;;;;;;2.97;2.60;;;15.00;75.80;;;;;;5136047;27;20035;-59
2021/10/18 09:06:14;;;;;;;3.22;2.55;;;15.10;75.90;;;;;;5136427;27;20062;-66
2021/10/18 09:08:40;;;;;;;3.17;2.67;;;15.00;75.80;;;;;;5136613;27;20035;-65
2021/10/18 09:11:10;;;;;;;2.50;2.22;;;15.00;75.90;;;;;;5136254;27;20052;-65
2021/10/18 09:13:37;;;;;;;3.30;2.83;;;15.00;75.80;;;;;;5135523;27;20050;-66
2021/10/18 09:16:03;;;;;;;2.97;2.60;;;15.00;75.80;;;;;;5135759;27;20124;-65
2021/10/18 09:18:29;;;;;;;2.75;2.40;;;15.00;75.80;;;;;;5136050;27;20058;-66
2021/10/18 09:20:55;;;;;;;3.33;2.40;;;15.00;75.80;;;;;;5136054;27;20047;-66
2021/10/18 09:23:28;;;;;;;2.90;2.42;;;15.00;75.80;;;;;;5136128;27;20088;-65
2021/10/18 09:26:13;;;;;;;2.80;2.33;;;15.00;75.80;;;;;;5135972;27;20143;-66
2021/10/18 09:28:39;;;;;;;2.63;2.33;;;15.10;75.80;;;;;;5135250;27;20051;-66
2021/10/18 09:31:05;;;;;;;2.92;2.38;;;15.00;75.80;;;;;;5135416;27;20049;-65
2021/10/18 09:33:37;;;;;;;3.35;2.53;;;15.00;75.80;;;;;;5135781;27;20047;-57
2021/10/18 09:36:05;;;;;;;2.88;2.58;;;15.10;75.90;;;;;;5135406;27;20039;-59
2021/10/18 09:38:31;;;;;;;3.70;2.97;;;15.00;75.80;;;;;;5135579;27;20406;-60
2021/10/18 09:41:00;;;;;;;3.03;2.70;;;15.00;75.80;;;;;;5135358;27;20039;-59
2021/10/18 09:43:32;;;;;;;3.50;2.50;;;15.20;75.90;;;;;;5135721;27;20054;-59
2021/10/18 10:55:52;;;;;;;2.33;2.13;;;15.00;75.90;;;;;;5134298;27;20058;-58
2021/10/18 10:58:30;;;;;;;3.08;2.40;;;15.10;75.90;;;;;;5134476;27;20062;-59
2021/10/18 11:00:56;;;;;;;2.22;2.03;;;15.20;75.90;;;;;;5115803;27;20055;-60
2021/10/18 11:03:31;;;;;;;2.47;2.08;;;15.10;75.90;;;;;;5134269;27;20043;-59
2021/10/18 11:06:04;;;;;;;2.80;2.60;;;15.10;75.90;;;;;;5133341;27;20043;-60
2021/10/18 11:08:41;;;;;;;3.22;2.22;;;15.10;75.90;;;;;;5133642;27;20039;-61
2021/10/18 11:11:19;;;;;;;2.70;2.15;;;15.10;75.90;;;;;;5134023;27;20042;-60
2021/10/18 11:13:49;;;;;;;2.55;2.17;;;15.10;76.20;;;;;;5133464;27;20031;-58
2021/10/18 11:16:17;;;;;;;2.40;1.88;;;15.10;76.00;;;;;;5133082;27;20082;-60
2021/10/18 11:18:47;;;;;;;2.47;2.10;;;15.10;75.90;;;;;;5133911;27;20122;-60
2021/10/18 11:21:16;;;;;;;2.75;2.13;;;15.10;75.90;;;;;;5133509;27;20066;-58
2021/10/18 11:24:00;;;;;;;2.75;2.45;;;15.10;75.90;;;;;;5133703;27;20380;-61
2021/10/18 11:26:28;;;;;;;2.40;2.10;;;15.10;75.80;;;;;;5133270;27;20053;-59
2021/10/18 11:28:59;;;;;;;3.10;2.33;;;15.10;75.90;;;;;;5133490;27;20035;-62
2021/10/18 11:31:28;;;;;;;3.33;2.30;;;15.10;75.90;;;;;;5133782;27;20047;-65
2021/10/18 11:34:11;;;;;;;2.90;2.38;;;15.10;75.90;;;;;;5133719;27;20044;-66
2021/10/18 11:36:42;;;;;;;2.70;2.00;;;15.10;75.90;;;;;;5114226;27;20173;-62
2021/10/18 11:39:21;;;;;;;2.72;2.40;;;15.10;75.90;;;;;;5133453;27;20478;-65
2021/10/18 11:41:59;;;;;;;2.10;1.90;;;15.10;75.80;;;;;;5133463;27;20054;-65
2021/10/18 11:44:41;;;;;;;3.00;2.50;;;15.10;75.80;;;;;;5133580;27;20039;-65
2021/10/18 11:47:48;;;;;;;3.35;2.72;;;15.10;75.80;;;;;;5114376;27;20501;-65
2021/10/18 11:50:25;;;;;;;2.45;2.15;;;15.10;75.80;;;;;;5110528;27;20059;-66
2021/10/18 11:52:55;;;;;;;2.15;1.92;;;15.10;75.80;;;;;;5132947;27;20086;-65
2021/10/18 11:55:32;;;;;;;2.47;2.28;;;15.10;75.90;;;;;;5133159;27;20043;-65
2021/10/18 11:58:00;;;;;;;3.00;2.30;;;15.10;75.80;;;;;;5132728;27;20039;-66
2021/10/18 12:00:29;;;;;;;2.83;2.38;;;15.10;75.80;;;;;;5133467;27;20043;-66
2021/10/18 12:03:01;;;;;;;4.25;2.58;;;15.10;75.80;;;;;;5133165;27;20471;-66
2021/10/18 12:05:53;;;;;;;3.00;2.17;;;15.10;75.80;;;;;;5133334;27;20367;-65
2021/10/18 12:08:21;;;;;;;2.90;2.60;;;15.10;75.80;;;;;;5131668;28;20043;-64
2021/10/18 12:10:49;;;;;;;3.95;2.20;;;15.10;75.80;;;;;;5097434;28;20055;-66
2021/10/18 12:13:26;;;;;;;3.00;2.13;;;15.10;75.80;;;;;;5133217;28;20483;-65
2021/10/18 12:16:03;;;;;;;3.05;2.45;;;15.20;75.80;;;;;;5133054;28;20051;-65
2021/10/18 12:18:32;;;;;;;2.47;2.25;;;15.10;75.70;;;;;;5132767;28;20050;-61
2021/10/18 12:21:07;;;;;;;2.75;2.25;;;15.10;75.80;;;;;;5133173;28;20043;-66
2021/10/18 12:23:45;;;;;;;3.42;2.53;;;15.20;75.80;;;;;;5133302;28;20047;-66
2021/10/18 12:26:19;;;;;;;3.10;2.30;;;15.20;75.80;;;;;;5133335;28;20495;-64
2021/10/18 12:29:04;;;;;;;3.00;2.42;;;15.20;75.90;;;;;;5135590;27;20067;-63
2021/10/18 12:31:37;;;;;;;3.70;2.97;;;15.10;75.70;;;;;;5116419;28;20039;-58
2021/10/18 12:34:18;;;;;;;3.80;3.03;;;15.20;75.80;;;;;;5116549;28;20040;-60
2021/10/18 12:37:02;;;;;;;2.70;2.35;;;15.20;75.70;;;;;;5116597;28;20434;-64
2021/10/18 12:39:47;;;;;;;3.92;2.90;;;15.20;75.70;;;;;;5098201;27;20058;-61
2021/10/18 12:42:28;;;;;;;3.67;2.90;;;15.20;75.70;;;;;;5136717;27;20064;-60
2021/10/18 12:45:13;;;;;;;3.55;2.90;;;15.20;75.80;;;;;;5136527;27;20043;-59
2021/10/18 12:47:46;;;;;;;3.03;2.60;;;15.20;75.80;;;;;;5137006;27;20043;-59
2021/10/18 12:50:20;;;;;;;2.78;2.33;;;15.10;75.70;;;;;;5136424;27;20039;-59
2021/10/18 12:52:57;;;;;;;2.85;2.40;;;15.20;75.80;;;;;;5135483;27;20061;-58
2021/10/18 12:55:34;;;;;;;2.80;2.33;;;15.20;75.70;;;;;;5117788;27;20043;-60
2021/10/18 12:58:22;;;;;;;4.13;3.28;;;15.20;75.70;;;;;;5117960;27;20479;-58
2021/10/18 13:00:48;;;;;;;2.95;2.45;;;15.20;75.80;;;;;;5135896;27;20039;-61
2021/10/18 13:03:13;;;;;;;2.63;1.92;;;15.20;75.80;;;;;;5136245;27;20039;-59
2021/10/18 13:05:49;;;;;;;3.20;2.30;;;15.20;75.80;;;;;;5136655;27;20058;-59
2021/10/18 13:08:22;;;;;;;3.13;2.40;;;15.20;75.80;;;;;;5136530;27;20187;-58
2021/10/18 13:10:50;;;;;;;3.40;2.70;;;15.20;75.80;;;;;;5136260;27;20126;-57
2021/10/18 13:13:21;;;;;;;2.53;2.17;;;15.20;75.80;;;;;;5135764;27;20043;-59
2021/10/18 13:15:48;;;;;;;3.63;2.75;;;15.20;75.80;;;;;;5136025;27;20463;-57
2021/10/18 13:18:16;;;;;;;5.90;3.42;;;15.20;75.70;;;;;;5136533;27;20448;-62
2021/10/18 13:20:43;;;;;;;2.25;2.05;;;15.20;75.80;;;;;;5117513;27;20561;-59
2021/10/18 13:23:09;;;;;;;4.18;3.03;;;15.20;75.70;;;;;;5135756;27;20127;-61
2021/10/18 13:25:41;;;;;;;2.50;1.90;;;15.20;75.70;;;;;;5136349;27;20050;-60
2021/10/18 13:28:08;;;;;;;3.00;2.30;;;15.20;75.70;;;;;;5135464;27;20043;-58
2021/10/18 13:30:35;;;;;;;2.92;2.22;;;15.20;75.70;;;;;;5135532;27;20099;-58
2021/10/18 13:33:02;;;;;;;2.75;2.20;;;15.20;75.70;;;;;;5135664;27;20050;-61
2021/10/18 13:35:28;;;;;;;2.10;1.90;;;15.20;75.70;;;;;;5135941;27;20426;-61
2021/10/18 13:37:55;;;;;;;2.33;2.10;;;15.20;75.70;;;;;;5135437;27;20043;-58
2021/10/18 13:40:23;;;;;;;2.63;2.20;;;15.20;75.70;;;;;;5135523;27;20039;-60
2021/10/18 13:42:49;;;;;;;2.17;1.90;;;15.20;75.70;;;;;;5116813;27;20142;-59
2021/10/18 13:45:18;;;;;;;2.75;2.13;;;15.20;75.70;;;;;;5135249;27;20368;-61
2021/10/18 13:47:44;;;;;;;2.55;2.10;;;15.30;75.80;;;;;;5117230;27;20047;-59
2021/10/18 13:50:10;;;;;;;2.75;2.08;;;15.20;75.70;;;;;;5135483;27;20053;-61
2021/10/18 13:52:36;;;;;;;2.92;2.38;;;15.20;75.70;;;;;;5135768;27;20397;-61
2021/10/18 13:55:04;;;;;;;2.55;2.20;;;15.30;75.80;;;;;;5135130;27;20043;-66
2021/10/18 13:57:32;;;;;;;3.40;2.13;;;15.20;75.70;;;;;;5135348;27;20084;-66
2021/10/18 13:59:58;;;;;;;2.90;2.20;;;15.20;75.70;;;;;;5135202;27;20061;-66
2021/10/18 14:02:25;;;;;;;2.90;2.30;;;15.30;75.70;;;;;;5135254;27;20031;-66